KPUW

Pullman / Moscow Regional Airport

Pullman/Moscow, Washington, USA
METAR KPUW 110313Z AUTO 20004KT 7SM FEW005 OVC013 01/01 A3024 RMK AO2 T00110006
Observed Flight Rules
Dec-11 @ 03:13 UTC (19 minutes ago) Marginal Visual Flight Rules
Wind Visibility Clouds
200° at 4 knots 7 miles
  • Few at 500' AGL
  • Overcast at 1,300' AGL
Temperatures Readings
Current 1°C / 34°F
Dewpoint 1°C / 34°F
Humidity 100%
Altimeter 30.24" Hg
Pressure 1024 hPa
Elevation 773
METAR KPUW 110313Z AUTO 20004KT 7SM FEW005 OVC013 01/01 A3024 RMK AO2 T00110006
Observed Flight Rules
Dec-11 @ 03:13 UTC
(19 minutes ago)
MVFR
Wind Visibility
200° at 4 knots 7 miles
Clouds
  • Few at 500' AGL
  • Overcast at 1,300' AGL
Temperature Dewpoint
1°C / 34°F 1°C / 34°F
Humidity Altimeter Pressure
100% 30.24" Hg 1024 hPa